createdAt,value
2022-12-25T00:03:34.168Z,0.00
2022-12-25T00:08:33.328Z,0.00
2022-12-25T00:13:33.229Z,0.00
2022-12-25T00:18:33.198Z,0.00
2022-12-25T00:23:33.100Z,0.00
2022-12-25T00:28:33.023Z,0.00
2022-12-25T00:33:32.962Z,0.00
2022-12-25T00:38:32.898Z,0.00
2022-12-25T00:43:32.831Z,0.00
2022-12-25T00:48:32.786Z,0.00
2022-12-25T00:53:32.719Z,0.00
2022-12-25T00:58:32.626Z,0.00
2022-12-25T01:03:32.561Z,0.00
2022-12-25T01:08:32.528Z,0.00
2022-12-25T01:13:32.429Z,0.00
2022-12-25T01:18:32.351Z,0.00
2022-12-25T01:23:32.293Z,0.00
2022-12-25T01:28:32.219Z,0.00
2022-12-25T01:33:32.163Z,0.00
2022-12-25T01:38:32.081Z,0.00
2022-12-25T01:43:32.064Z,0.00
2022-12-25T01:48:31.950Z,0.00
2022-12-25T01:53:31.907Z,0.00
2022-12-25T01:58:31.839Z,0.00
2022-12-25T02:03:32.036Z,0.00
2022-12-25T02:08:31.680Z,0.00
2022-12-25T02:13:31.633Z,0.00
2022-12-25T02:18:31.544Z,0.00
2022-12-25T02:23:31.521Z,0.00
2022-12-25T02:28:31.425Z,0.00
2022-12-25T02:33:31.338Z,0.00
2022-12-25T02:38:31.278Z,0.00
2022-12-25T02:43:31.207Z,0.00
2022-12-25T02:48:31.148Z,0.00
2022-12-25T02:53:31.078Z,0.00
2022-12-25T02:58:31.013Z,0.00
2022-12-25T03:03:31.031Z,0.00
2022-12-25T03:08:30.891Z,0.00
2022-12-25T03:13:30.807Z,0.00
2022-12-25T03:18:30.783Z,0.00
2022-12-25T03:23:30.680Z,0.00
2022-12-25T03:28:30.620Z,0.00
2022-12-25T03:33:45.123Z,0.00
2022-12-25T03:38:31.528Z,0.00
2022-12-25T03:43:30.417Z,0.00
2022-12-25T03:48:30.353Z,0.00
2022-12-25T03:53:30.281Z,0.00
2022-12-25T03:58:30.223Z,0.00
2022-12-25T04:03:30.246Z,0.00
2022-12-25T04:08:30.102Z,0.00
2022-12-25T04:13:30.061Z,0.00
2022-12-25T04:18:29.962Z,0.00
2022-12-25T04:23:29.889Z,0.00
2022-12-25T04:28:29.849Z,0.00
2022-12-25T04:33:29.757Z,0.00
2022-12-25T04:38:29.707Z,0.00
2022-12-25T04:43:29.625Z,0.00
2022-12-25T04:48:29.566Z,0.00
2022-12-25T04:53:29.496Z,0.00
2022-12-25T04:58:29.430Z,0.00
2022-12-25T05:03:29.465Z,0.00
2022-12-25T05:08:29.290Z,0.00
2022-12-25T05:13:29.243Z,0.00
2022-12-25T05:18:29.160Z,0.00
2022-12-25T05:23:29.127Z,0.00
2022-12-25T05:28:29.030Z,0.00
2022-12-25T05:33:28.981Z,0.00
2022-12-25T05:38:28.906Z,0.00
2022-12-25T05:43:28.848Z,0.00
2022-12-25T05:48:28.765Z,0.00
2022-12-25T05:53:28.711Z,0.00
2022-12-25T05:58:28.638Z,0.00
2022-12-25T06:03:28.735Z,0.00
2022-12-25T06:08:28.503Z,0.00
2022-12-25T06:13:28.460Z,0.00
2022-12-25T06:18:28.380Z,0.00
2022-12-25T06:23:28.376Z,0.00
2022-12-25T06:28:28.248Z,0.00
2022-12-25T06:33:28.194Z,4.00
2022-12-25T06:38:28.112Z,4.00
2022-12-25T06:43:28.062Z,8.00
2022-12-25T06:48:27.983Z,12.00
2022-12-25T06:53:30.175Z,24.00
2022-12-25T06:58:27.841Z,32.00
2022-12-25T07:03:27.859Z,44.00
2022-12-25T07:08:27.727Z,56.00
2022-12-25T07:13:27.703Z,76.00
2022-12-25T07:18:27.575Z,104.00
2022-12-25T07:23:27.528Z,148.00
2022-12-25T07:28:27.445Z,232.00
2022-12-25T07:33:27.381Z,336.00
2022-12-25T07:38:27.304Z,448.00
2022-12-25T07:43:27.244Z,688.00
2022-12-25T07:48:27.170Z,852.00
2022-12-25T07:53:27.109Z,808.00
2022-12-25T07:58:27.037Z,1624.00
2022-12-25T08:03:27.118Z,2104.00
2022-12-25T08:08:26.901Z,1036.00
2022-12-25T08:13:26.848Z,956.00
2022-12-25T08:18:29.861Z,1108.00
2022-12-25T08:23:26.716Z,1212.00
2022-12-25T08:28:26.640Z,1220.00
2022-12-25T08:33:26.587Z,1128.00
2022-12-25T08:38:26.501Z,1248.00
2022-12-25T08:43:26.451Z,1268.00
2022-12-25T08:48:26.467Z,1628.00
2022-12-25T08:53:26.322Z,1996.00
2022-12-25T08:58:26.234Z,2040.00
2022-12-25T09:03:26.276Z,2468.00
2022-12-25T09:08:26.112Z,2208.00
2022-12-25T09:13:26.045Z,5996.00
2022-12-25T09:18:25.968Z,26112.00
2022-12-25T09:23:25.912Z,33312.00
2022-12-25T09:28:25.855Z,33696.00
2022-12-25T09:33:25.780Z,20480.00
2022-12-25T09:38:25.716Z,35008.00
2022-12-25T09:43:25.654Z,34656.00
2022-12-25T09:48:25.581Z,11768.00
2022-12-25T09:53:25.546Z,10228.00
2022-12-25T09:58:25.446Z,9548.00
2022-12-25T10:03:25.413Z,7532.00
2022-12-25T10:08:25.318Z,6764.00
2022-12-25T10:13:25.265Z,6820.00
2022-12-25T10:18:25.182Z,5892.00
2022-12-25T10:23:25.125Z,7432.00
2022-12-25T10:28:25.056Z,9392.00
2022-12-25T10:33:24.976Z,12548.00
2022-12-25T10:38:24.914Z,7556.00
2022-12-25T10:43:24.862Z,8860.00
2022-12-25T10:48:24.783Z,8664.00
2022-12-25T10:53:24.715Z,5480.00
2022-12-25T10:58:24.651Z,3912.00
2022-12-25T11:03:24.756Z,4168.00
2022-12-25T11:08:24.539Z,5068.00
2022-12-25T11:13:24.448Z,6440.00
2022-12-25T11:18:24.401Z,4256.00
2022-12-25T11:23:24.316Z,5176.00
2022-12-25T11:28:24.249Z,5248.00
2022-12-25T11:33:24.175Z,4800.00
2022-12-25T11:38:24.099Z,4152.00
2022-12-25T11:43:24.081Z,4728.00
2022-12-25T11:48:24.006Z,5232.00
2022-12-25T11:53:23.910Z,4112.00
2022-12-25T11:58:23.843Z,3536.00
2022-12-25T12:03:23.960Z,2764.00
2022-12-25T12:08:23.768Z,2640.00
2022-12-25T12:13:23.742Z,2364.00
2022-12-25T12:18:23.787Z,2752.00
2022-12-25T12:23:23.506Z,1864.00
2022-12-25T12:28:23.435Z,1948.00
2022-12-25T12:33:23.375Z,1752.00
2022-12-25T12:38:23.297Z,1540.00
2022-12-25T12:43:23.235Z,1108.00
2022-12-25T12:48:23.165Z,1024.00
2022-12-25T12:53:23.104Z,932.00
2022-12-25T12:58:23.029Z,872.00
2022-12-25T13:03:23.019Z,908.00
2022-12-25T13:08:22.907Z,888.00
2022-12-25T13:13:22.834Z,940.00
2022-12-25T13:18:22.770Z,1240.00
2022-12-25T13:23:22.704Z,1184.00
2022-12-25T13:28:22.636Z,1232.00
2022-12-25T13:33:22.594Z,760.00
2022-12-25T13:38:22.518Z,632.00
2022-12-25T13:43:22.435Z,612.00
2022-12-25T13:48:22.379Z,604.00
2022-12-25T13:53:22.302Z,580.00
2022-12-25T13:58:22.225Z,548.00
2022-12-25T14:03:22.338Z,540.00
2022-12-25T14:08:22.105Z,392.00
2022-12-25T14:13:22.033Z,408.00
2022-12-25T14:18:21.962Z,264.00
2022-12-25T14:23:21.897Z,224.00
2022-12-25T14:28:21.838Z,376.00
2022-12-25T14:33:21.767Z,492.00
2022-12-25T14:38:21.700Z,368.00
2022-12-25T14:43:21.635Z,324.00
2022-12-25T14:48:25.214Z,228.00
2022-12-25T14:53:21.499Z,136.00
2022-12-25T14:58:21.461Z,88.00
2022-12-25T15:03:21.571Z,48.00
2022-12-25T15:08:21.288Z,32.00
2022-12-25T15:13:21.224Z,24.00
2022-12-25T15:18:21.153Z,16.00
2022-12-25T15:23:21.349Z,16.00
2022-12-25T15:28:21.037Z,8.00
2022-12-25T15:33:20.958Z,4.00
2022-12-25T15:38:20.889Z,4.00
2022-12-25T15:43:39.897Z,0.00
2022-12-25T15:48:21.786Z,0.00
2022-12-25T15:53:20.694Z,0.00
2022-12-25T15:58:20.621Z,0.00
2022-12-25T16:03:20.632Z,0.00
2022-12-25T16:08:20.492Z,0.00
2022-12-25T16:13:20.426Z,0.00
2022-12-25T16:18:20.357Z,0.00
2022-12-25T16:23:20.311Z,0.00
2022-12-25T16:28:20.224Z,0.00
2022-12-25T16:33:20.171Z,0.00
2022-12-25T16:38:20.085Z,0.00
2022-12-25T16:43:23.976Z,0.00
2022-12-25T16:48:19.955Z,0.00
2022-12-25T16:53:19.903Z,0.00
2022-12-25T16:58:19.821Z,0.00
2022-12-25T17:03:19.880Z,0.00
2022-12-25T17:08:19.689Z,0.00
2022-12-25T17:13:19.628Z,0.00
2022-12-25T17:18:19.567Z,0.00
2022-12-25T17:23:19.496Z,0.00
2022-12-25T17:28:19.417Z,0.00
2022-12-25T17:33:19.359Z,0.00
2022-12-25T17:38:19.283Z,0.00
2022-12-25T17:43:21.143Z,0.00
2022-12-25T17:48:19.157Z,0.00
2022-12-25T17:53:19.104Z,0.00
2022-12-25T17:58:19.062Z,0.00
2022-12-25T18:03:19.179Z,0.00
2022-12-25T18:08:18.881Z,0.00
2022-12-25T18:13:18.835Z,0.00
2022-12-25T18:18:18.754Z,0.00
2022-12-25T18:23:18.700Z,0.00
2022-12-25T18:28:18.621Z,0.00
2022-12-25T18:33:18.567Z,0.00
2022-12-25T18:38:18.479Z,0.00
2022-12-25T18:43:18.430Z,0.00
2022-12-25T18:48:18.346Z,0.00
2022-12-25T18:53:18.296Z,0.00
2022-12-25T18:58:18.212Z,0.00
2022-12-25T19:03:18.237Z,0.00
2022-12-25T19:08:18.082Z,0.00
2022-12-25T19:13:18.016Z,0.00
2022-12-25T19:18:17.945Z,0.00
2022-12-25T19:23:17.884Z,0.00
2022-12-25T19:28:17.835Z,0.00
2022-12-25T19:33:18.211Z,0.00
2022-12-25T19:38:17.677Z,0.00
2022-12-25T19:43:17.630Z,0.00
2022-12-25T19:48:17.544Z,0.00
2022-12-25T19:53:17.500Z,0.00
2022-12-25T19:58:17.414Z,0.00
2022-12-25T20:03:17.422Z,0.00
2022-12-25T20:08:17.280Z,0.00
2022-12-25T20:13:17.231Z,0.00
2022-12-25T20:18:17.147Z,0.00
2022-12-25T20:23:17.088Z,0.00
2022-12-25T20:28:17.015Z,0.00
2022-12-25T20:33:16.955Z,0.00
2022-12-25T20:38:16.884Z,0.00
2022-12-25T20:43:16.825Z,0.00
2022-12-25T20:48:16.746Z,0.00
2022-12-25T20:53:16.719Z,0.00
2022-12-25T20:58:16.613Z,0.00
2022-12-25T21:03:16.734Z,0.00
2022-12-25T21:08:16.481Z,0.00
2022-12-25T21:13:16.422Z,0.00
2022-12-25T21:18:16.351Z,0.00
2022-12-25T21:23:16.288Z,0.00
2022-12-25T21:28:16.213Z,0.00
2022-12-25T21:33:17.309Z,0.00
2022-12-25T21:38:16.086Z,0.00
2022-12-25T21:43:16.038Z,0.00
2022-12-25T21:48:15.961Z,0.00
2022-12-25T21:53:15.909Z,0.00
2022-12-25T21:58:15.826Z,0.00
2022-12-25T22:03:15.830Z,0.00
2022-12-25T22:08:15.711Z,0.00
2022-12-25T22:13:15.665Z,0.00
2022-12-25T22:18:15.561Z,0.00
2022-12-25T22:23:15.488Z,0.00
2022-12-25T22:28:15.424Z,0.00
2022-12-25T22:33:15.373Z,0.00
2022-12-25T22:38:15.286Z,0.00
2022-12-25T22:43:15.224Z,0.00
2022-12-25T22:48:15.149Z,0.00
2022-12-25T22:53:15.095Z,0.00
2022-12-25T22:58:16.026Z,0.00
2022-12-25T23:03:15.112Z,0.00
2022-12-25T23:08:14.906Z,0.00
2022-12-25T23:13:14.826Z,0.00
2022-12-25T23:18:14.784Z,0.00
2022-12-25T23:23:14.692Z,0.00
2022-12-25T23:28:14.628Z,0.00
2022-12-25T23:33:14.558Z,0.00
2022-12-25T23:38:14.495Z,0.00
2022-12-25T23:43:14.417Z,0.00
2022-12-25T23:48:14.390Z,0.00
2022-12-25T23:53:14.288Z,0.00
2022-12-25T23:58:14.228Z,0.00
